sensor_id;sensor_type;location;lat;lon;timestamp;P1;durP1;ratioP1;P2;durP2;ratioP2
70106;SDS011;57473;37.508;15.080;2023-06-26T00:02:24;13.02;;;7.03;;
70106;SDS011;57473;37.508;15.080;2023-06-26T00:04:51;13.35;;;7.30;;
70106;SDS011;57473;37.508;15.080;2023-06-26T00:07:20;15.23;;;7.60;;
70106;SDS011;57473;37.508;15.080;2023-06-26T00:09:47;12.95;;;6.97;;
70106;SDS011;57473;37.508;15.080;2023-06-26T00:12:15;13.38;;;6.68;;
70106;SDS011;57473;37.508;15.080;2023-06-26T00:14:42;12.80;;;7.40;;
70106;SDS011;57473;37.508;15.080;2023-06-26T00:17:11;9.68;;;6.38;;
70106;SDS011;57473;37.508;15.080;2023-06-26T00:19:38;11.15;;;6.35;;
70106;SDS011;57473;37.508;15.080;2023-06-26T00:22:05;15.00;;;7.00;;
70106;SDS011;57473;37.508;15.080;2023-06-26T00:24:33;13.00;;;7.00;;
70106;SDS011;57473;37.508;15.080;2023-06-26T00:27:00;11.30;;;6.65;;
70106;SDS011;57473;37.508;15.080;2023-06-26T00:29:28;12.50;;;6.63;;
70106;SDS011;57473;37.508;15.080;2023-06-26T00:31:56;14.85;;;6.70;;
70106;SDS011;57473;37.508;15.080;2023-06-26T00:34:25;12.30;;;6.50;;
70106;SDS011;57473;37.508;15.080;2023-06-26T00:36:52;14.30;;;6.72;;
70106;SDS011;57473;37.508;15.080;2023-06-26T00:39:20;11.95;;;7.32;;
70106;SDS011;57473;37.508;15.080;2023-06-26T00:41:47;12.85;;;6.82;;
70106;SDS011;57473;37.508;15.080;2023-06-26T00:44:14;14.13;;;6.88;;
70106;SDS011;57473;37.508;15.080;2023-06-26T00:46:42;10.77;;;6.45;;
70106;SDS011;57473;37.508;15.080;2023-06-26T00:49:10;11.13;;;6.07;;
70106;SDS011;57473;37.508;15.080;2023-06-26T00:51:38;14.75;;;6.75;;
70106;SDS011;57473;37.508;15.080;2023-06-26T00:54:06;13.63;;;6.50;;
70106;SDS011;57473;37.508;15.080;2023-06-26T00:56:33;12.65;;;6.22;;
70106;SDS011;57473;37.508;15.080;2023-06-26T00:59:04;18.73;;;6.60;;
70106;SDS011;57473;37.508;15.080;2023-06-26T01:01:31;14.60;;;6.95;;
70106;SDS011;57473;37.508;15.080;2023-06-26T01:03:59;14.02;;;7.05;;
70106;SDS011;57473;37.508;15.080;2023-06-26T01:06:27;9.43;;;6.13;;
70106;SDS011;57473;37.508;15.080;2023-06-26T01:08:58;16.02;;;7.07;;
70106;SDS011;57473;37.508;15.080;2023-06-26T01:11:26;12.70;;;6.20;;
70106;SDS011;57473;37.508;15.080;2023-06-26T01:13:54;14.10;;;6.70;;
70106;SDS011;57473;37.508;15.080;2023-06-26T01:16:23;12.50;;;6.47;;
70106;SDS011;57473;37.508;15.080;2023-06-26T01:18:52;11.15;;;6.45;;
70106;SDS011;57473;37.508;15.080;2023-06-26T01:21:20;12.40;;;6.30;;
70106;SDS011;57473;37.508;15.080;2023-06-26T01:26:31;16.52;;;7.30;;
70106;SDS011;57473;37.508;15.080;2023-06-26T01:29:06;16.00;;;8.35;;
70106;SDS011;57473;37.508;15.080;2023-06-26T01:31:34;12.73;;;6.97;;
70106;SDS011;57473;37.508;15.080;2023-06-26T01:34:02;15.82;;;7.25;;
70106;SDS011;57473;37.508;15.080;2023-06-26T01:36:29;14.38;;;7.40;;
70106;SDS011;57473;37.508;15.080;2023-06-26T01:38:57;13.90;;;7.78;;
70106;SDS011;57473;37.508;15.080;2023-06-26T01:41:25;15.38;;;8.25;;
70106;SDS011;57473;37.508;15.080;2023-06-26T01:47:06;13.57;;;7.82;;
70106;SDS011;57473;37.508;15.080;2023-06-26T01:52:19;13.82;;;7.85;;
70106;SDS011;57473;37.508;15.080;2023-06-26T01:57:54;15.77;;;8.45;;
70106;SDS011;57473;37.508;15.080;2023-06-26T02:00:23;15.23;;;7.80;;
70106;SDS011;57473;37.508;15.080;2023-06-26T02:02:52;14.82;;;8.07;;
70106;SDS011;57473;37.508;15.080;2023-06-26T02:05:20;12.98;;;7.65;;
70106;SDS011;57473;37.508;15.080;2023-06-26T02:07:48;17.52;;;7.93;;
70106;SDS011;57473;37.508;15.080;2023-06-26T02:10:15;15.82;;;7.75;;
70106;SDS011;57473;37.508;15.080;2023-06-26T02:12:43;17.00;;;8.00;;
70106;SDS011;57473;37.508;15.080;2023-06-26T02:15:12;14.13;;;7.63;;
70106;SDS011;57473;37.508;15.080;2023-06-26T02:17:40;17.65;;;7.35;;
70106;SDS011;57473;37.508;15.080;2023-06-26T02:20:07;15.23;;;8.13;;
70106;SDS011;57473;37.508;15.080;2023-06-26T02:22:37;17.48;;;7.85;;
70106;SDS011;57473;37.508;15.080;2023-06-26T02:25:08;12.02;;;7.15;;
70106;SDS011;57473;37.508;15.080;2023-06-26T02:27:37;13.75;;;7.63;;
70106;SDS011;57473;37.508;15.080;2023-06-26T02:30:05;14.48;;;6.80;;
70106;SDS011;57473;37.508;15.080;2023-06-26T02:32:35;10.07;;;7.17;;
70106;SDS011;57473;37.508;15.080;2023-06-26T02:35:03;9.57;;;6.03;;
70106;SDS011;57473;37.508;15.080;2023-06-26T02:37:31;10.25;;;6.25;;
70106;SDS011;57473;37.508;15.080;2023-06-26T02:39:58;10.40;;;6.55;;
70106;SDS011;57473;37.508;15.080;2023-06-26T02:42:26;11.60;;;6.60;;
70106;SDS011;57473;37.508;15.080;2023-06-26T02:44:53;9.13;;;5.82;;
70106;SDS011;57473;37.508;15.080;2023-06-26T02:47:21;10.30;;;6.35;;
70106;SDS011;57473;37.508;15.080;2023-06-26T02:49:49;12.20;;;6.13;;
70106;SDS011;57473;37.508;15.080;2023-06-26T02:52:16;11.02;;;6.25;;
70106;SDS011;57473;37.508;15.080;2023-06-26T02:54:46;12.85;;;5.88;;
70106;SDS011;57473;37.508;15.080;2023-06-26T02:57:13;8.20;;;5.55;;
70106;SDS011;57473;37.508;15.080;2023-06-26T02:59:41;9.05;;;6.10;;
70106;SDS011;57473;37.508;15.080;2023-06-26T03:02:12;10.15;;;6.03;;
70106;SDS011;57473;37.508;15.080;2023-06-26T03:04:44;12.77;;;6.88;;
70106;SDS011;57473;37.508;15.080;2023-06-26T03:07:13;9.73;;;7.15;;
70106;SDS011;57473;37.508;15.080;2023-06-26T03:09:41;8.93;;;5.85;;
70106;SDS011;57473;37.508;15.080;2023-06-26T03:12:09;11.15;;;6.03;;
70106;SDS011;57473;37.508;15.080;2023-06-26T03:14:36;11.20;;;6.25;;
70106;SDS011;57473;37.508;15.080;2023-06-26T03:17:06;14.95;;;6.47;;
70106;SDS011;57473;37.508;15.080;2023-06-26T03:19:36;13.07;;;6.45;;
70106;SDS011;57473;37.508;15.080;2023-06-26T03:22:29;11.45;;;6.70;;
70106;SDS011;57473;37.508;15.080;2023-06-26T03:24:56;12.90;;;7.13;;
70106;SDS011;57473;37.508;15.080;2023-06-26T03:27:24;14.45;;;7.22;;
70106;SDS011;57473;37.508;15.080;2023-06-26T03:29:52;11.93;;;7.07;;
70106;SDS011;57473;37.508;15.080;2023-06-26T03:32:23;12.50;;;7.15;;
70106;SDS011;57473;37.508;15.080;2023-06-26T03:34:50;15.40;;;7.72;;
70106;SDS011;57473;37.508;15.080;2023-06-26T03:37:20;13.80;;;7.13;;
70106;SDS011;57473;37.508;15.080;2023-06-26T03:39:49;11.45;;;7.22;;
70106;SDS011;57473;37.508;15.080;2023-06-26T03:42:16;12.63;;;6.47;;
70106;SDS011;57473;37.508;15.080;2023-06-26T03:44:43;12.68;;;6.93;;
70106;SDS011;57473;37.508;15.080;2023-06-26T03:47:11;11.00;;;7.00;;
70106;SDS011;57473;37.508;15.080;2023-06-26T03:49:38;14.73;;;6.55;;
70106;SDS011;57473;37.508;15.080;2023-06-26T03:52:06;58.28;;;43.30;;
70106;SDS011;57473;37.508;15.080;2023-06-26T03:54:33;54.33;;;36.95;;
70106;SDS011;57473;37.508;15.080;2023-06-26T03:57:01;69.25;;;48.00;;
70106;SDS011;57473;37.508;15.080;2023-06-26T03:59:29;40.33;;;29.48;;
70106;SDS011;57473;37.508;15.080;2023-06-26T04:01:57;33.47;;;24.83;;
70106;SDS011;57473;37.508;15.080;2023-06-26T04:04:25;18.95;;;12.85;;
70106;SDS011;57473;37.508;15.080;2023-06-26T04:06:53;21.35;;;10.98;;
70106;SDS011;57473;37.508;15.080;2023-06-26T04:09:21;28.15;;;15.07;;
70106;SDS011;57473;37.508;15.080;2023-06-26T04:11:48;22.17;;;12.35;;
70106;SDS011;57473;37.508;15.080;2023-06-26T04:14:16;22.38;;;11.50;;
70106;SDS011;57473;37.508;15.080;2023-06-26T04:16:44;18.25;;;10.25;;
70106;SDS011;57473;37.508;15.080;2023-06-26T04:19:12;19.48;;;9.55;;
70106;SDS011;57473;37.508;15.080;2023-06-26T04:21:40;18.45;;;9.65;;
70106;SDS011;57473;37.508;15.080;2023-06-26T04:24:08;18.42;;;9.48;;
70106;SDS011;57473;37.508;15.080;2023-06-26T04:26:40;18.85;;;10.52;;
70106;SDS011;57473;37.508;15.080;2023-06-26T04:29:12;15.43;;;9.00;;
70106;SDS011;57473;37.508;15.080;2023-06-26T04:31:39;19.17;;;10.73;;
70106;SDS011;57473;37.508;15.080;2023-06-26T04:34:07;18.40;;;10.32;;
70106;SDS011;57473;37.508;15.080;2023-06-26T04:36:34;18.20;;;9.00;;
70106;SDS011;57473;37.508;15.080;2023-06-26T04:39:05;16.20;;;9.43;;
70106;SDS011;57473;37.508;15.080;2023-06-26T04:41:33;15.63;;;9.43;;
70106;SDS011;57473;37.508;15.080;2023-06-26T04:44:00;18.65;;;9.93;;
70106;SDS011;57473;37.508;15.080;2023-06-26T04:46:28;20.40;;;9.65;;
70106;SDS011;57473;37.508;15.080;2023-06-26T04:48:55;18.23;;;9.65;;
70106;SDS011;57473;37.508;15.080;2023-06-26T04:51:25;26.27;;;16.65;;
70106;SDS011;57473;37.508;15.080;2023-06-26T04:53:54;26.90;;;10.45;;
70106;SDS011;57473;37.508;15.080;2023-06-26T04:56:21;18.63;;;8.98;;
70106;SDS011;57473;37.508;15.080;2023-06-26T04:58:49;15.50;;;8.18;;
70106;SDS011;57473;37.508;15.080;2023-06-26T05:01:16;16.73;;;8.05;;
70106;SDS011;57473;37.508;15.080;2023-06-26T05:03:46;15.88;;;6.97;;
70106;SDS011;57473;37.508;15.080;2023-06-26T05:06:14;17.73;;;7.10;;
70106;SDS011;57473;37.508;15.080;2023-06-26T05:08:42;15.45;;;7.38;;
70106;SDS011;57473;37.508;15.080;2023-06-26T05:11:09;17.30;;;7.50;;
70106;SDS011;57473;37.508;15.080;2023-06-26T05:13:38;13.68;;;7.40;;
70106;SDS011;57473;37.508;15.080;2023-06-26T05:16:08;15.48;;;7.80;;
70106;SDS011;57473;37.508;15.080;2023-06-26T05:18:36;16.95;;;6.57;;
70106;SDS011;57473;37.508;15.080;2023-06-26T05:21:04;13.35;;;7.28;;
70106;SDS011;57473;37.508;15.080;2023-06-26T05:23:32;13.57;;;7.95;;
70106;SDS011;57473;37.508;15.080;2023-06-26T05:26:01;14.73;;;8.32;;
70106;SDS011;57473;37.508;15.080;2023-06-26T05:28:29;18.92;;;6.80;;
70106;SDS011;57473;37.508;15.080;2023-06-26T05:31:01;14.70;;;7.57;;
70106;SDS011;57473;37.508;15.080;2023-06-26T05:33:31;14.95;;;7.70;;
70106;SDS011;57473;37.508;15.080;2023-06-26T05:36:02;16.77;;;7.45;;
70106;SDS011;57473;37.508;15.080;2023-06-26T05:38:32;20.10;;;7.57;;
70106;SDS011;57473;37.508;15.080;2023-06-26T05:41:00;13.85;;;7.10;;
70106;SDS011;57473;37.508;15.080;2023-06-26T05:43:27;14.88;;;6.05;;
70106;SDS011;57473;37.508;15.080;2023-06-26T05:45:56;15.40;;;6.60;;
70106;SDS011;57473;37.508;15.080;2023-06-26T05:48:25;14.90;;;6.22;;
70106;SDS011;57473;37.508;15.080;2023-06-26T05:50:52;11.48;;;6.13;;
70106;SDS011;57473;37.508;15.080;2023-06-26T05:53:20;20.40;;;6.40;;
70106;SDS011;57473;37.508;15.080;2023-06-26T05:55:47;15.55;;;6.43;;
70106;SDS011;57473;37.508;15.080;2023-06-26T05:58:15;15.02;;;7.20;;
70106;SDS011;57473;37.508;15.080;2023-06-26T06:00:44;13.77;;;6.70;;
70106;SDS011;57473;37.508;15.080;2023-06-26T06:03:12;11.77;;;6.60;;
70106;SDS011;57473;37.508;15.080;2023-06-26T06:05:39;14.30;;;6.65;;
70106;SDS011;57473;37.508;15.080;2023-06-26T06:08:07;13.82;;;6.85;;
70106;SDS011;57473;37.508;15.080;2023-06-26T06:10:34;15.40;;;7.18;;
70106;SDS011;57473;37.508;15.080;2023-06-26T06:13:02;10.75;;;5.70;;
70106;SDS011;57473;37.508;15.080;2023-06-26T06:15:29;8.55;;;5.50;;
70106;SDS011;57473;37.508;15.080;2023-06-26T06:17:57;11.13;;;5.50;;
70106;SDS011;57473;37.508;15.080;2023-06-26T06:20:24;11.13;;;6.45;;
70106;SDS011;57473;37.508;15.080;2023-06-26T06:22:52;13.52;;;6.93;;
70106;SDS011;57473;37.508;15.080;2023-06-26T06:25:19;14.93;;;7.38;;
70106;SDS011;57473;37.508;15.080;2023-06-26T06:27:47;15.88;;;7.20;;
70106;SDS011;57473;37.508;15.080;2023-06-26T06:30:15;14.00;;;7.55;;
70106;SDS011;57473;37.508;15.080;2023-06-26T06:32:47;11.50;;;6.22;;
70106;SDS011;57473;37.508;15.080;2023-06-26T06:35:17;13.68;;;6.70;;
70106;SDS011;57473;37.508;15.080;2023-06-26T06:37:45;14.43;;;6.28;;
70106;SDS011;57473;37.508;15.080;2023-06-26T06:40:13;15.88;;;6.57;;
70106;SDS011;57473;37.508;15.080;2023-06-26T06:42:40;14.23;;;6.10;;
70106;SDS011;57473;37.508;15.080;2023-06-26T06:45:08;16.45;;;6.35;;
70106;SDS011;57473;37.508;15.080;2023-06-26T06:47:36;12.32;;;5.47;;
70106;SDS011;57473;37.508;15.080;2023-06-26T06:50:06;12.50;;;6.22;;
70106;SDS011;57473;37.508;15.080;2023-06-26T06:52:38;12.63;;;6.57;;
70106;SDS011;57473;37.508;15.080;2023-06-26T06:55:07;11.10;;;6.00;;
70106;SDS011;57473;37.508;15.080;2023-06-26T06:57:38;13.10;;;5.90;;
70106;SDS011;57473;37.508;15.080;2023-06-26T07:00:07;13.95;;;6.80;;
70106;SDS011;57473;37.508;15.080;2023-06-26T07:02:42;12.60;;;5.95;;
70106;SDS011;57473;37.508;15.080;2023-06-26T07:05:11;11.32;;;6.30;;
70106;SDS011;57473;37.508;15.080;2023-06-26T07:07:39;14.57;;;6.38;;
70106;SDS011;57473;37.508;15.080;2023-06-26T07:10:10;13.02;;;5.55;;
70106;SDS011;57473;37.508;15.080;2023-06-26T07:12:41;13.27;;;7.05;;
70106;SDS011;57473;37.508;15.080;2023-06-26T07:15:10;10.00;;;5.80;;
70106;SDS011;57473;37.508;15.080;2023-06-26T07:17:38;14.13;;;7.57;;
70106;SDS011;57473;37.508;15.080;2023-06-26T07:20:06;16.25;;;5.93;;
70106;SDS011;57473;37.508;15.080;2023-06-26T07:22:36;12.93;;;6.28;;
70106;SDS011;57473;37.508;15.080;2023-06-26T07:25:03;11.48;;;6.05;;
70106;SDS011;57473;37.508;15.080;2023-06-26T07:27:36;22.55;;;14.65;;
70106;SDS011;57473;37.508;15.080;2023-06-26T07:30:04;13.48;;;8.98;;
70106;SDS011;57473;37.508;15.080;2023-06-26T07:35:03;33.40;;;11.25;;
70106;SDS011;57473;37.508;15.080;2023-06-26T07:37:31;36.65;;;18.95;;
70106;SDS011;57473;37.508;15.080;2023-06-26T07:39:59;74.25;;;49.05;;
70106;SDS011;57473;37.508;15.080;2023-06-26T07:42:27;75.15;;;48.10;;
70106;SDS011;57473;37.508;15.080;2023-06-26T07:44:55;41.47;;;26.25;;
70106;SDS011;57473;37.508;15.080;2023-06-26T07:47:24;15.63;;;8.80;;
70106;SDS011;57473;37.508;15.080;2023-06-26T07:49:52;12.77;;;5.90;;
70106;SDS011;57473;37.508;15.080;2023-06-26T07:52:19;10.75;;;6.00;;
70106;SDS011;57473;37.508;15.080;2023-06-26T07:54:47;14.07;;;7.13;;
70106;SDS011;57473;37.508;15.080;2023-06-26T07:57:14;12.40;;;5.72;;
70106;SDS011;57473;37.508;15.080;2023-06-26T07:59:42;15.65;;;6.82;;
70106;SDS011;57473;37.508;15.080;2023-06-26T08:02:09;13.80;;;7.15;;
70106;SDS011;57473;37.508;15.080;2023-06-26T08:04:36;11.90;;;6.28;;
70106;SDS011;57473;37.508;15.080;2023-06-26T08:07:04;12.88;;;5.82;;
70106;SDS011;57473;37.508;15.080;2023-06-26T08:09:32;9.25;;;5.70;;
70106;SDS011;57473;37.508;15.080;2023-06-26T08:12:00;11.68;;;5.35;;
70106;SDS011;57473;37.508;15.080;2023-06-26T08:14:27;13.63;;;5.63;;
70106;SDS011;57473;37.508;15.080;2023-06-26T08:16:55;8.70;;;4.85;;
70106;SDS011;57473;37.508;15.080;2023-06-26T08:19:23;12.23;;;5.40;;
70106;SDS011;57473;37.508;15.080;2023-06-26T08:21:50;9.27;;;5.32;;
70106;SDS011;57473;37.508;15.080;2023-06-26T08:24:26;9.10;;;5.45;;
70106;SDS011;57473;37.508;15.080;2023-06-26T08:26:54;21.48;;;6.50;;
70106;SDS011;57473;37.508;15.080;2023-06-26T08:29:21;13.13;;;5.63;;
70106;SDS011;57473;37.508;15.080;2023-06-26T08:31:49;23.00;;;6.10;;
70106;SDS011;57473;37.508;15.080;2023-06-26T08:34:16;25.35;;;7.38;;
70106;SDS011;57473;37.508;15.080;2023-06-26T08:36:44;19.35;;;5.75;;
70106;SDS011;57473;37.508;15.080;2023-06-26T08:39:11;18.92;;;6.03;;
70106;SDS011;57473;37.508;15.080;2023-06-26T08:41:39;14.82;;;5.32;;
70106;SDS011;57473;37.508;15.080;2023-06-26T08:44:06;25.20;;;6.63;;
70106;SDS011;57473;37.508;15.080;2023-06-26T08:46:34;10.55;;;5.10;;
70106;SDS011;57473;37.508;15.080;2023-06-26T08:49:18;14.80;;;5.03;;
70106;SDS011;57473;37.508;15.080;2023-06-26T08:51:54;10.70;;;5.13;;
70106;SDS011;57473;37.508;15.080;2023-06-26T08:54:28;13.43;;;5.90;;
70106;SDS011;57473;37.508;15.080;2023-06-26T08:57:01;97.63;;;15.57;;
70106;SDS011;57473;37.508;15.080;2023-06-26T08:59:29;35.03;;;8.55;;
70106;SDS011;57473;37.508;15.080;2023-06-26T09:01:58;14.43;;;6.15;;
70106;SDS011;57473;37.508;15.080;2023-06-26T09:04:25;13.88;;;6.10;;
70106;SDS011;57473;37.508;15.080;2023-06-26T09:06:53;19.80;;;6.82;;
70106;SDS011;57473;37.508;15.080;2023-06-26T09:09:21;17.48;;;5.82;;
70106;SDS011;57473;37.508;15.080;2023-06-26T09:11:48;13.07;;;5.82;;
70106;SDS011;57473;37.508;15.080;2023-06-26T09:14:15;19.23;;;6.50;;
70106;SDS011;57473;37.508;15.080;2023-06-26T09:16:45;15.95;;;5.93;;
70106;SDS011;57473;37.508;15.080;2023-06-26T09:19:13;13.43;;;6.18;;
70106;SDS011;57473;37.508;15.080;2023-06-26T09:21:41;15.10;;;5.97;;
70106;SDS011;57473;37.508;15.080;2023-06-26T09:24:10;14.27;;;6.30;;
70106;SDS011;57473;37.508;15.080;2023-06-26T09:26:39;17.45;;;6.43;;
70106;SDS011;57473;37.508;15.080;2023-06-26T09:29:08;13.45;;;5.82;;
70106;SDS011;57473;37.508;15.080;2023-06-26T09:31:39;17.98;;;6.20;;
70106;SDS011;57473;37.508;15.080;2023-06-26T09:34:08;11.90;;;5.63;;
70106;SDS011;57473;37.508;15.080;2023-06-26T09:36:37;13.30;;;6.45;;
70106;SDS011;57473;37.508;15.080;2023-06-26T09:39:07;13.32;;;6.60;;
70106;SDS011;57473;37.508;15.080;2023-06-26T09:41:41;15.68;;;6.43;;
70106;SDS011;57473;37.508;15.080;2023-06-26T09:44:13;12.45;;;6.15;;
70106;SDS011;57473;37.508;15.080;2023-06-26T09:46:41;12.38;;;6.57;;
70106;SDS011;57473;37.508;15.080;2023-06-26T09:49:13;16.73;;;6.32;;
70106;SDS011;57473;37.508;15.080;2023-06-26T09:51:41;14.43;;;7.10;;
70106;SDS011;57473;37.508;15.080;2023-06-26T09:54:09;9.63;;;6.68;;
70106;SDS011;57473;37.508;15.080;2023-06-26T09:56:37;11.90;;;7.05;;
70106;SDS011;57473;37.508;15.080;2023-06-26T09:59:05;13.32;;;6.93;;
70106;SDS011;57473;37.508;15.080;2023-06-26T10:01:33;15.63;;;7.65;;
70106;SDS011;57473;37.508;15.080;2023-06-26T10:04:06;11.55;;;6.97;;
70106;SDS011;57473;37.508;15.080;2023-06-26T10:06:40;11.95;;;7.50;;
70106;SDS011;57473;37.508;15.080;2023-06-26T10:09:12;14.02;;;7.65;;
70106;SDS011;57473;37.508;15.080;2023-06-26T10:11:43;12.13;;;7.28;;
70106;SDS011;57473;37.508;15.080;2023-06-26T10:14:15;14.27;;;6.88;;
70106;SDS011;57473;37.508;15.080;2023-06-26T10:16:44;12.60;;;5.82;;
70106;SDS011;57473;37.508;15.080;2023-06-26T10:19:15;7.90;;;5.60;;
70106;SDS011;57473;37.508;15.080;2023-06-26T10:21:48;12.60;;;6.75;;
70106;SDS011;57473;37.508;15.080;2023-06-26T10:24:17;13.15;;;6.30;;
70106;SDS011;57473;37.508;15.080;2023-06-26T10:26:46;8.95;;;5.18;;
70106;SDS011;57473;37.508;15.080;2023-06-26T10:29:18;9.52;;;5.13;;
70106;SDS011;57473;37.508;15.080;2023-06-26T10:31:50;14.10;;;5.60;;
70106;SDS011;57473;37.508;15.080;2023-06-26T10:34:21;13.93;;;5.18;;
70106;SDS011;57473;37.508;15.080;2023-06-26T10:36:58;8.48;;;5.35;;
70106;SDS011;57473;37.508;15.080;2023-06-26T10:39:31;11.43;;;5.65;;
70106;SDS011;57473;37.508;15.080;2023-06-26T10:42:17;9.40;;;5.07;;
70106;SDS011;57473;37.508;15.080;2023-06-26T10:44:46;8.27;;;5.43;;
70106;SDS011;57473;37.508;15.080;2023-06-26T10:47:30;15.00;;;8.57;;
70106;SDS011;57473;37.508;15.080;2023-06-26T10:50:18;12.43;;;5.43;;
70106;SDS011;57473;37.508;15.080;2023-06-26T10:53:08;13.48;;;5.43;;
70106;SDS011;57473;37.508;15.080;2023-06-26T10:55:56;10.27;;;5.47;;
70106;SDS011;57473;37.508;15.080;2023-06-26T10:58:29;13.32;;;5.03;;
70106;SDS011;57473;37.508;15.080;2023-06-26T11:01:22;11.68;;;5.72;;
70106;SDS011;57473;37.508;15.080;2023-06-26T11:06:33;7.83;;;4.47;;
70106;SDS011;57473;37.508;15.080;2023-06-26T11:14:19;29.23;;;7.65;;
70106;SDS011;57473;37.508;15.080;2023-06-26T11:16:50;14.93;;;6.30;;
70106;SDS011;57473;37.508;15.080;2023-06-26T11:19:19;11.27;;;5.28;;
70106;SDS011;57473;37.508;15.080;2023-06-26T11:21:47;15.77;;;5.00;;
70106;SDS011;57473;37.508;15.080;2023-06-26T11:24:15;15.68;;;5.47;;
70106;SDS011;57473;37.508;15.080;2023-06-26T11:26:43;13.57;;;5.32;;
70106;SDS011;57473;37.508;15.080;2023-06-26T11:29:11;10.40;;;4.75;;
70106;SDS011;57473;37.508;15.080;2023-06-26T11:31:40;12.65;;;5.35;;
70106;SDS011;57473;37.508;15.080;2023-06-26T11:34:09;12.38;;;4.80;;
70106;SDS011;57473;37.508;15.080;2023-06-26T11:36:39;11.60;;;4.55;;
70106;SDS011;57473;37.508;15.080;2023-06-26T11:39:10;9.77;;;4.93;;
70106;SDS011;57473;37.508;15.080;2023-06-26T11:41:40;10.55;;;5.30;;
70106;SDS011;57473;37.508;15.080;2023-06-26T11:44:10;11.45;;;4.70;;
70106;SDS011;57473;37.508;15.080;2023-06-26T11:46:37;9.40;;;5.18;;
70106;SDS011;57473;37.508;15.080;2023-06-26T11:49:05;8.38;;;5.13;;
70106;SDS011;57473;37.508;15.080;2023-06-26T11:51:34;11.50;;;4.45;;
70106;SDS011;57473;37.508;15.080;2023-06-26T11:54:03;8.40;;;4.22;;
70106;SDS011;57473;37.508;15.080;2023-06-26T11:56:31;11.43;;;4.43;;
70106;SDS011;57473;37.508;15.080;2023-06-26T11:59:05;7.82;;;4.93;;
70106;SDS011;57473;37.508;15.080;2023-06-26T12:01:43;13.82;;;4.50;;
70106;SDS011;57473;37.508;15.080;2023-06-26T12:04:12;11.18;;;5.10;;
70106;SDS011;57473;37.508;15.080;2023-06-26T12:09:14;13.38;;;4.60;;
70106;SDS011;57473;37.508;15.080;2023-06-26T12:11:46;9.23;;;3.95;;
70106;SDS011;57473;37.508;15.080;2023-06-26T12:14:16;10.63;;;4.30;;
70106;SDS011;57473;37.508;15.080;2023-06-26T12:16:45;10.45;;;4.20;;
70106;SDS011;57473;37.508;15.080;2023-06-26T12:19:13;10.73;;;4.40;;
70106;SDS011;57473;37.508;15.080;2023-06-26T12:24:09;10.88;;;4.07;;
70106;SDS011;57473;37.508;15.080;2023-06-26T12:26:41;9.10;;;4.13;;
70106;SDS011;57473;37.508;15.080;2023-06-26T12:29:13;10.02;;;5.00;;
70106;SDS011;57473;37.508;15.080;2023-06-26T12:31:44;7.68;;;4.20;;
70106;SDS011;57473;37.508;15.080;2023-06-26T12:34:13;11.25;;;4.40;;
70106;SDS011;57473;37.508;15.080;2023-06-26T12:36:49;7.93;;;3.60;;
70106;SDS011;57473;37.508;15.080;2023-06-26T12:39:18;7.38;;;3.78;;
70106;SDS011;57473;37.508;15.080;2023-06-26T12:41:49;11.30;;;3.88;;
70106;SDS011;57473;37.508;15.080;2023-06-26T12:44:27;6.60;;;3.50;;
70106;SDS011;57473;37.508;15.080;2023-06-26T12:47:00;6.18;;;3.65;;
70106;SDS011;57473;37.508;15.080;2023-06-26T12:49:36;7.30;;;3.65;;
70106;SDS011;57473;37.508;15.080;2023-06-26T12:52:06;9.60;;;4.13;;
70106;SDS011;57473;37.508;15.080;2023-06-26T12:54:34;9.82;;;3.72;;
70106;SDS011;57473;37.508;15.080;2023-06-26T12:57:04;8.88;;;4.25;;
70106;SDS011;57473;37.508;15.080;2023-06-26T12:59:32;8.13;;;4.00;;
70106;SDS011;57473;37.508;15.080;2023-06-26T13:02:00;7.22;;;3.88;;
70106;SDS011;57473;37.508;15.080;2023-06-26T13:04:28;5.88;;;3.30;;
70106;SDS011;57473;37.508;15.080;2023-06-26T13:06:55;11.18;;;3.88;;
70106;SDS011;57473;37.508;15.080;2023-06-26T13:09:24;9.07;;;4.50;;
70106;SDS011;57473;37.508;15.080;2023-06-26T13:11:52;9.25;;;3.88;;
70106;SDS011;57473;37.508;15.080;2023-06-26T13:14:19;8.63;;;3.53;;
70106;SDS011;57473;37.508;15.080;2023-06-26T13:16:47;8.77;;;3.75;;
70106;SDS011;57473;37.508;15.080;2023-06-26T13:19:15;7.15;;;3.33;;
70106;SDS011;57473;37.508;15.080;2023-06-26T13:21:43;17.30;;;5.10;;
70106;SDS011;57473;37.508;15.080;2023-06-26T13:24:10;15.38;;;5.35;;
70106;SDS011;57473;37.508;15.080;2023-06-26T13:26:38;11.27;;;4.22;;
70106;SDS011;57473;37.508;15.080;2023-06-26T13:29:05;11.57;;;4.30;;
70106;SDS011;57473;37.508;15.080;2023-06-26T13:31:33;21.65;;;4.50;;
70106;SDS011;57473;37.508;15.080;2023-06-26T13:34:01;18.00;;;4.38;;
70106;SDS011;57473;37.508;15.080;2023-06-26T13:36:30;9.73;;;3.73;;
70106;SDS011;57473;37.508;15.080;2023-06-26T13:39:01;9.18;;;3.72;;
70106;SDS011;57473;37.508;15.080;2023-06-26T13:41:29;10.45;;;3.92;;
70106;SDS011;57473;37.508;15.080;2023-06-26T13:43:56;9.18;;;3.70;;
70106;SDS011;57473;37.508;15.080;2023-06-26T13:46:30;10.18;;;4.05;;
70106;SDS011;57473;37.508;15.080;2023-06-26T13:48:58;7.82;;;3.47;;
70106;SDS011;57473;37.508;15.080;2023-06-26T13:51:26;10.82;;;3.95;;
70106;SDS011;57473;37.508;15.080;2023-06-26T13:53:53;8.93;;;4.22;;
70106;SDS011;57473;37.508;15.080;2023-06-26T13:56:21;14.23;;;4.85;;
70106;SDS011;57473;37.508;15.080;2023-06-26T13:58:50;11.07;;;4.45;;
70106;SDS011;57473;37.508;15.080;2023-06-26T14:01:18;54.45;;;8.90;;
70106;SDS011;57473;37.508;15.080;2023-06-26T14:03:46;13.98;;;4.45;;
70106;SDS011;57473;37.508;15.080;2023-06-26T14:06:13;12.05;;;4.13;;
70106;SDS011;57473;37.508;15.080;2023-06-26T14:08:41;10.55;;;4.30;;
70106;SDS011;57473;37.508;15.080;2023-06-26T14:11:08;15.18;;;4.50;;
70106;SDS011;57473;37.508;15.080;2023-06-26T14:13:36;18.67;;;4.47;;
70106;SDS011;57473;37.508;15.080;2023-06-26T14:16:03;9.00;;;3.80;;
70106;SDS011;57473;37.508;15.080;2023-06-26T14:18:32;8.32;;;3.50;;
70106;SDS011;57473;37.508;15.080;2023-06-26T14:20:59;9.13;;;3.75;;
70106;SDS011;57473;37.508;15.080;2023-06-26T14:23:29;7.28;;;3.55;;
70106;SDS011;57473;37.508;15.080;2023-06-26T14:25:57;9.15;;;4.00;;
70106;SDS011;57473;37.508;15.080;2023-06-26T14:28:24;10.70;;;4.15;;
70106;SDS011;57473;37.508;15.080;2023-06-26T14:30:52;13.63;;;3.80;;
70106;SDS011;57473;37.508;15.080;2023-06-26T14:33:19;9.48;;;3.40;;
70106;SDS011;57473;37.508;15.080;2023-06-26T14:35:47;9.10;;;3.90;;
70106;SDS011;57473;37.508;15.080;2023-06-26T14:38:14;12.25;;;4.10;;
70106;SDS011;57473;37.508;15.080;2023-06-26T14:40:42;8.20;;;3.53;;
70106;SDS011;57473;37.508;15.080;2023-06-26T14:43:10;8.68;;;4.00;;
70106;SDS011;57473;37.508;15.080;2023-06-26T14:45:37;9.68;;;3.97;;
70106;SDS011;57473;37.508;15.080;2023-06-26T14:48:06;10.43;;;4.10;;
70106;SDS011;57473;37.508;15.080;2023-06-26T14:50:33;13.23;;;3.75;;
70106;SDS011;57473;37.508;15.080;2023-06-26T14:53:01;9.63;;;3.92;;
70106;SDS011;57473;37.508;15.080;2023-06-26T14:55:29;8.55;;;3.30;;
70106;SDS011;57473;37.508;15.080;2023-06-26T14:57:57;9.27;;;3.60;;
70106;SDS011;57473;37.508;15.080;2023-06-26T15:00:24;7.72;;;3.67;;
70106;SDS011;57473;37.508;15.080;2023-06-26T15:02:53;8.95;;;4.05;;